createdAt,value
2019-03-22T00:01:33.372Z,100794.90
2019-03-22T00:04:00.283Z,100792.09
2019-03-22T00:06:27.511Z,100786.71
2019-03-22T00:08:54.347Z,100786.67
2019-03-22T00:11:21.176Z,100785.77
2019-03-22T00:13:48.343Z,100776.53
2019-03-22T00:16:15.076Z,100782.95
2019-03-22T00:18:42.029Z,100780.78
2019-03-22T00:21:08.981Z,100777.83
2019-03-22T00:23:35.861Z,100776.63
2019-03-22T00:26:05.663Z,100775.49
2019-03-22T00:28:32.627Z,100775.63
2019-03-22T00:30:59.507Z,100780.30
2019-03-22T00:33:26.551Z,100774.32
2019-03-22T00:35:54.046Z,100777.05
2019-03-22T00:38:20.993Z,100780.60
2019-03-22T00:40:47.881Z,100779.61
2019-03-22T00:43:14.779Z,100777.79
2019-03-22T00:45:41.701Z,100777.14
2019-03-22T00:48:08.586Z,100781.56
2019-03-22T00:50:35.797Z,100776.19
2019-03-22T00:53:02.800Z,100779.91
2019-03-22T00:55:30.042Z,100779.30
2019-03-22T00:57:56.908Z,100772.81
2019-03-22T01:00:23.826Z,100775.49
2019-03-22T01:02:51.193Z,100768.13
2019-03-22T01:05:18.057Z,100768.47
2019-03-22T01:07:44.809Z,100773.11
2019-03-22T01:10:12.525Z,100776.61
2019-03-22T01:12:39.479Z,100765.05
2019-03-22T01:15:10.956Z,100775.63
2019-03-22T01:17:37.767Z,100768.69
2019-03-22T01:20:06.655Z,100767.09
2019-03-22T01:22:33.513Z,100764.40
2019-03-22T01:25:00.529Z,100759.33
2019-03-22T01:27:27.533Z,100760.89
2019-03-22T01:29:54.551Z,100756.64
2019-03-22T01:32:21.526Z,100762.63
2019-03-22T01:34:48.473Z,100751.45
2019-03-22T01:37:15.478Z,100751.66
2019-03-22T01:39:42.325Z,100750.80
2019-03-22T01:42:09.353Z,100753.31
2019-03-22T01:44:36.230Z,100750.28
2019-03-22T01:47:03.181Z,100749.92
2019-03-22T01:49:30.103Z,100752.79
2019-03-22T01:51:56.957Z,100748.68
2019-03-22T01:54:23.838Z,100753.61
2019-03-22T01:56:50.855Z,100748.33
2019-03-22T01:59:17.829Z,100745.21
2019-03-22T02:01:44.877Z,100740.97
2019-03-22T02:04:11.816Z,100726.80
2019-03-22T02:06:38.722Z,100734.12
2019-03-22T02:09:06.611Z,100727.84
2019-03-22T02:11:33.553Z,100730.05
2019-03-22T02:14:00.770Z,100731.78
2019-03-22T02:16:27.685Z,100730.48
2019-03-22T02:18:54.517Z,100716.00
2019-03-22T02:21:21.451Z,100718.52
2019-03-22T02:23:48.171Z,100713.50
2019-03-22T02:26:15.043Z,100717.44
2019-03-22T02:28:41.822Z,100715.19
2019-03-22T02:31:08.693Z,100706.66
2019-03-22T02:33:35.560Z,100711.94
2019-03-22T02:36:02.446Z,100704.06
2019-03-22T02:38:29.412Z,100705.62
2019-03-22T02:40:56.251Z,100709.98
2019-03-22T02:43:22.992Z,100713.59
2019-03-22T02:45:49.933Z,100713.20
2019-03-22T02:48:16.937Z,100716.00
2019-03-22T02:50:43.749Z,100724.38
2019-03-22T02:53:10.502Z,100717.56
2019-03-22T02:55:37.481Z,100718.70
2019-03-22T02:58:19.358Z,100722.64
2019-03-22T03:00:33.304Z,100721.72
2019-03-22T03:03:00.204Z,100727.83
2019-03-22T03:05:27.463Z,100731.08
2019-03-22T03:07:54.448Z,100739.84
2019-03-22T03:10:21.217Z,100734.55
2019-03-22T03:12:48.466Z,100742.13
2019-03-22T03:15:16.578Z,100738.19
2019-03-22T03:17:43.396Z,100738.53
2019-03-22T03:20:15.957Z,100730.91
2019-03-22T03:22:42.744Z,100731.25
2019-03-22T03:25:09.741Z,100732.37
2019-03-22T03:27:36.907Z,100733.73
2019-03-22T03:30:10.178Z,100725.11
2019-03-22T03:32:37.109Z,100740.66
2019-03-22T03:35:04.816Z,100732.63
2019-03-22T03:37:31.643Z,100743.73
2019-03-22T03:39:58.485Z,100737.83
2019-03-22T03:42:25.670Z,100739.95
2019-03-22T03:44:52.636Z,100744.72
2019-03-22T03:47:19.826Z,100746.55
2019-03-22T03:49:46.785Z,100746.47
2019-03-22T03:52:13.714Z,100742.25
2019-03-22T03:54:40.914Z,100741.56
2019-03-22T03:57:07.912Z,100737.45
2019-03-22T03:59:35.256Z,100732.78
2019-03-22T04:02:02.113Z,100728.34
2019-03-22T04:04:28.942Z,100730.55
2019-03-22T04:06:55.837Z,100730.68
2019-03-22T04:09:23.033Z,100734.84
2019-03-22T04:11:49.883Z,100739.20
2019-03-22T04:14:17.146Z,100732.27
2019-03-22T04:16:44.319Z,100732.20
2019-03-22T04:19:11.072Z,100722.01
2019-03-22T04:21:38.030Z,100731.05
2019-03-22T04:24:05.021Z,100721.78
2019-03-22T04:26:31.945Z,100733.62
2019-03-22T04:29:07.107Z,100728.86
2019-03-22T04:31:28.049Z,100719.53
2019-03-22T04:33:54.959Z,100723.59
2019-03-22T04:36:21.898Z,100724.42
2019-03-22T04:38:48.974Z,100712.05
2019-03-22T04:41:16.024Z,100712.05
2019-03-22T04:43:42.928Z,100712.56
2019-03-22T04:46:09.948Z,100700.83
2019-03-22T04:48:36.883Z,100702.56
2019-03-22T04:51:03.969Z,100706.98
2019-03-22T04:53:33.945Z,100710.62
2019-03-22T04:56:00.841Z,100708.89
2019-03-22T04:58:28.108Z,100718.08
2019-03-22T05:00:55.105Z,100720.58
2019-03-22T05:03:22.070Z,100728.95
2019-03-22T05:05:48.956Z,100728.27
2019-03-22T05:08:16.341Z,100725.02
2019-03-22T05:10:43.576Z,100739.52
2019-03-22T05:13:10.521Z,100752.42
2019-03-22T05:15:37.340Z,100751.30
2019-03-22T05:18:04.697Z,100747.58
2019-03-22T05:20:32.910Z,100742.22
2019-03-22T05:22:59.743Z,100730.52
2019-03-22T05:25:26.634Z,100732.81
2019-03-22T05:27:53.543Z,100733.94
2019-03-22T05:30:50.161Z,100742.22
2019-03-22T05:33:17.964Z,100756.77
2019-03-22T05:35:44.960Z,100764.62
2019-03-22T05:38:12.038Z,100765.05
2019-03-22T05:40:38.973Z,100769.08
2019-03-22T05:43:05.990Z,100762.02
2019-03-22T05:45:32.965Z,100761.80
2019-03-22T05:47:59.921Z,100751.02
2019-03-22T05:50:27.796Z,100748.63
2019-03-22T05:52:54.825Z,100758.59
2019-03-22T05:55:21.876Z,100755.81
2019-03-22T05:57:48.683Z,100749.60
2019-03-22T06:00:16.855Z,100751.75
2019-03-22T06:02:43.776Z,100770.26
2019-03-22T06:05:10.830Z,100767.12
2019-03-22T06:07:37.817Z,100771.38
2019-03-22T06:10:04.820Z,100775.87
2019-03-22T06:12:32.315Z,100773.23
2019-03-22T06:14:59.173Z,100770.56
2019-03-22T06:17:25.983Z,100772.52
2019-03-22T06:19:53.069Z,100775.20
2019-03-22T06:22:20.127Z,100765.58
2019-03-22T06:24:47.312Z,100774.12
2019-03-22T06:27:14.169Z,100766.39
2019-03-22T06:29:41.030Z,100780.19
2019-03-22T06:32:07.979Z,100788.52
2019-03-22T06:34:34.902Z,100788.70
2019-03-22T06:37:01.771Z,100789.61
2019-03-22T06:39:28.801Z,100786.99
2019-03-22T06:41:55.636Z,100789.55
2019-03-22T06:44:22.587Z,100785.75
2019-03-22T06:46:49.468Z,100778.81
2019-03-22T06:49:16.269Z,100792.45
2019-03-22T06:51:43.224Z,100794.39
2019-03-22T06:54:10.237Z,100795.59
2019-03-22T06:56:37.234Z,100800.30
2019-03-22T06:59:04.074Z,100805.03
2019-03-22T07:01:30.942Z,100805.05
2019-03-22T07:03:57.893Z,100801.39
2019-03-22T07:06:25.114Z,100802.27
2019-03-22T07:08:51.998Z,100804.72
2019-03-22T07:11:19.605Z,100806.42
2019-03-22T07:13:46.481Z,100817.39
2019-03-22T07:16:13.896Z,100820.19
2019-03-22T07:18:40.935Z,100834.07
2019-03-22T07:21:07.795Z,100839.16
2019-03-22T07:23:34.829Z,100842.18
2019-03-22T07:26:01.685Z,100838.03
2019-03-22T07:28:28.679Z,100839.91
2019-03-22T07:30:55.631Z,100843.19
2019-03-22T07:33:22.528Z,100849.12
2019-03-22T07:35:49.559Z,100851.28
2019-03-22T07:38:16.704Z,100842.88
2019-03-22T07:40:43.934Z,100841.23
2019-03-22T07:43:11.039Z,100854.03
2019-03-22T07:45:37.988Z,100854.03
2019-03-22T07:48:04.889Z,100865.73
2019-03-22T07:50:31.938Z,100870.57
2019-03-22T07:52:58.795Z,100870.38
2019-03-22T07:55:26.089Z,100872.27
2019-03-22T07:57:53.208Z,100884.70
2019-03-22T08:00:30.284Z,100881.55
2019-03-22T08:02:49.245Z,100893.61
2019-03-22T08:05:16.214Z,100894.56
2019-03-22T08:07:43.467Z,100901.06
2019-03-22T08:10:10.406Z,100896.94
2019-03-22T08:12:37.501Z,100906.42
2019-03-22T08:15:08.249Z,100911.02
2019-03-22T08:17:34.618Z,100913.48
2019-03-22T08:20:02.331Z,100917.95
2019-03-22T08:22:29.274Z,100907.81
2019-03-22T08:24:56.244Z,100911.48
2019-03-22T08:27:23.177Z,100894.11
2019-03-22T08:29:50.299Z,100884.70
2019-03-22T08:32:17.121Z,100880.41
2019-03-22T08:34:44.098Z,100881.77
2019-03-22T08:37:12.448Z,100886.92
2019-03-22T08:39:39.363Z,100877.94
2019-03-22T08:42:06.246Z,100881.73
2019-03-22T08:44:33.252Z,100878.76
2019-03-22T08:47:00.247Z,100882.41
2019-03-22T08:49:28.332Z,100887.39
2019-03-22T08:51:55.484Z,100877.14
2019-03-22T08:54:22.418Z,100878.29
2019-03-22T08:56:49.545Z,100865.53
2019-03-22T08:59:16.621Z,100868.54
2019-03-22T09:01:43.429Z,100871.52
2019-03-22T09:04:10.303Z,100870.83
2019-03-22T09:06:37.407Z,100863.55
2019-03-22T09:09:06.093Z,100861.08
2019-03-22T09:11:33.079Z,100861.95
2019-03-22T09:14:00.320Z,100872.41
2019-03-22T09:16:27.245Z,100870.55
2019-03-22T09:18:54.175Z,100869.23
2019-03-22T09:21:21.189Z,100860.92
2019-03-22T09:23:48.017Z,100857.57
2019-03-22T09:26:14.937Z,100852.07
2019-03-22T09:28:42.133Z,100847.28
2019-03-22T09:31:10.782Z,100842.98
2019-03-22T09:33:38.088Z,100846.47
2019-03-22T09:36:05.022Z,100845.02
2019-03-22T09:38:31.909Z,100836.91
2019-03-22T09:40:58.875Z,100836.39
2019-03-22T09:43:25.777Z,100831.70
2019-03-22T09:45:52.859Z,100835.05
2019-03-22T09:48:20.039Z,100827.58
2019-03-22T09:50:47.051Z,100838.89
2019-03-22T09:53:14.192Z,100838.77
2019-03-22T09:55:41.237Z,100831.45
2019-03-22T09:58:08.136Z,100820.28
2019-03-22T10:00:35.029Z,100823.63
2019-03-22T10:03:02.599Z,100814.72
2019-03-22T10:05:29.642Z,100815.59
2019-03-22T10:07:56.735Z,100820.43
2019-03-22T10:10:23.673Z,100823.45
2019-03-22T10:12:50.852Z,100822.19
2019-03-22T10:15:18.611Z,100824.99
2019-03-22T10:17:45.587Z,100814.95
2019-03-22T10:20:12.473Z,100813.09
2019-03-22T10:22:39.936Z,100818.72
2019-03-22T10:25:07.076Z,100814.26
2019-03-22T10:27:34.724Z,100809.87
2019-03-22T10:30:03.377Z,100809.31
2019-03-22T10:32:30.364Z,100808.58
2019-03-22T10:34:57.391Z,100809.52
2019-03-22T10:37:24.244Z,100805.58
2019-03-22T10:39:51.122Z,100802.91
2019-03-22T10:42:18.293Z,100798.63
2019-03-22T10:44:45.309Z,100805.12
2019-03-22T10:47:12.212Z,100800.26
2019-03-22T10:49:41.788Z,100797.33
2019-03-22T10:52:08.069Z,100798.02
2019-03-22T10:54:35.097Z,100798.75
2019-03-22T10:57:02.261Z,100793.67
2019-03-22T10:59:29.280Z,100793.08
2019-03-22T11:02:03.100Z,100795.20
2019-03-22T11:04:25.122Z,100805.88
2019-03-22T11:06:51.931Z,100803.44
2019-03-22T11:09:18.886Z,100800.70
2019-03-22T11:11:45.823Z,100804.41
2019-03-22T11:14:12.851Z,100794.48
2019-03-22T11:16:41.495Z,100806.61
2019-03-22T11:19:08.497Z,100805.83
2019-03-22T11:21:35.373Z,100807.99
2019-03-22T11:24:02.321Z,100810.93
2019-03-22T11:26:29.627Z,100812.24
2019-03-22T11:28:56.552Z,100821.91
2019-03-22T11:31:28.387Z,100811.83
2019-03-22T11:33:52.716Z,100817.19
2019-03-22T11:36:19.567Z,100816.24
2019-03-22T11:38:46.556Z,100819.77
2019-03-22T11:41:13.680Z,100820.48
2019-03-22T11:43:40.527Z,100821.95
2019-03-22T11:46:07.385Z,100824.42
2019-03-22T11:48:34.180Z,100823.41
2019-03-22T11:51:01.105Z,100820.13
2019-03-22T11:53:28.113Z,100817.70
2019-03-22T11:55:54.919Z,100815.20
2019-03-22T11:58:23.253Z,100813.70
2019-03-22T12:00:50.243Z,100804.56
2019-03-22T12:03:17.112Z,100802.36
2019-03-22T12:05:43.980Z,100794.06
2019-03-22T12:08:10.990Z,100794.36
2019-03-22T12:10:37.956Z,100785.41
2019-03-22T12:13:04.839Z,100779.45
2019-03-22T12:15:31.695Z,100784.20
2019-03-22T12:18:00.327Z,100780.39
2019-03-22T12:20:27.426Z,100773.45
2019-03-22T12:22:54.515Z,100765.75
2019-03-22T12:25:23.103Z,100762.88
2019-03-22T12:27:50.023Z,100756.22
2019-03-22T12:30:17.393Z,100756.73
2019-03-22T12:32:44.287Z,100756.44
2019-03-22T12:35:12.069Z,100766.84
2019-03-22T12:37:38.967Z,100761.05
2019-03-22T12:40:09.506Z,100769.83
2019-03-22T12:42:36.423Z,100763.24
2019-03-22T12:45:12.536Z,100770.62
2019-03-22T12:47:39.586Z,100768.83
2019-03-22T12:50:06.744Z,100767.78
2019-03-22T12:52:33.879Z,100760.41
2019-03-22T12:55:00.817Z,100759.97
2019-03-22T12:57:27.853Z,100763.02
2019-03-22T12:59:54.773Z,100764.41
2019-03-22T13:02:21.816Z,100767.59
2019-03-22T13:04:48.763Z,100776.95
2019-03-22T13:07:16.143Z,100778.39
2019-03-22T13:09:43.061Z,100771.83
2019-03-22T13:12:10.210Z,100766.37
2019-03-22T13:14:37.205Z,100768.70
2019-03-22T13:17:04.126Z,100767.19
2019-03-22T13:19:31.177Z,100763.52
2019-03-22T13:21:58.074Z,100758.55
2019-03-22T13:24:24.942Z,100758.55
2019-03-22T13:26:51.855Z,100751.58
2019-03-22T13:29:18.917Z,100753.23
2019-03-22T13:31:45.724Z,100753.47
2019-03-22T13:34:12.555Z,100748.38
2019-03-22T13:36:39.426Z,100742.98
2019-03-22T13:39:06.891Z,100749.00
2019-03-22T13:41:33.855Z,100751.38
2019-03-22T13:44:00.714Z,100752.83
2019-03-22T13:46:27.437Z,100755.06
2019-03-22T13:48:54.347Z,100759.91
2019-03-22T13:51:21.363Z,100755.25
2019-03-22T13:53:48.294Z,100754.63
2019-03-22T13:56:15.333Z,100756.31
2019-03-22T13:58:43.629Z,100754.44
2019-03-22T14:01:10.695Z,100757.60
2019-03-22T14:03:37.589Z,100764.60
2019-03-22T14:06:04.489Z,100766.66
2019-03-22T14:08:31.744Z,100766.13
2019-03-22T14:10:58.723Z,100766.66
2019-03-22T14:13:28.219Z,100745.87
2019-03-22T14:15:55.039Z,100745.87
2019-03-22T14:18:22.021Z,100738.60
2019-03-22T14:20:49.091Z,100728.37
2019-03-22T14:23:15.973Z,100737.33
2019-03-22T14:25:42.801Z,100731.95
2019-03-22T14:28:09.684Z,100729.80
2019-03-22T14:30:36.603Z,100720.38
2019-03-22T14:33:12.980Z,100720.03
2019-03-22T14:35:32.319Z,100728.63
2019-03-22T14:37:59.166Z,100724.83
2019-03-22T14:40:25.979Z,100722.69
2019-03-22T14:42:52.903Z,100735.00
2019-03-22T14:45:19.695Z,100726.09
2019-03-22T14:47:46.574Z,100728.50
2019-03-22T14:50:13.556Z,100725.72
2019-03-22T14:52:40.481Z,100731.66
2019-03-22T14:55:07.295Z,100732.69
2019-03-22T14:57:34.156Z,100737.31
2019-03-22T15:00:01.134Z,100742.63
2019-03-22T15:02:27.888Z,100744.59
2019-03-22T15:04:54.732Z,100738.16
2019-03-22T15:07:21.633Z,100733.09
2019-03-22T15:09:48.444Z,100738.69
2019-03-22T15:12:17.280Z,100744.34
2019-03-22T15:14:46.061Z,100742.02
2019-03-22T15:17:30.401Z,100740.67
2019-03-22T15:20:15.968Z,100749.17
2019-03-22T15:23:01.532Z,100751.28
2019-03-22T15:25:47.039Z,100758.06
2019-03-22T15:28:32.594Z,100752.55
2019-03-22T15:31:07.794Z,100748.34
2019-03-22T15:33:42.280Z,100747.00
2019-03-22T15:36:13.814Z,100739.38
2019-03-22T15:38:45.656Z,100741.73
2019-03-22T15:41:12.776Z,100746.56
2019-03-22T15:43:39.728Z,100754.05
2019-03-22T15:46:06.556Z,100746.08
2019-03-22T15:48:33.904Z,100753.04
2019-03-22T15:51:00.779Z,100753.04
2019-03-22T15:53:27.554Z,100761.50
2019-03-22T15:55:54.504Z,100752.85
2019-03-22T15:58:21.291Z,100753.18
2019-03-22T16:00:48.184Z,100748.41
2019-03-22T16:03:15.244Z,100748.89
2019-03-22T16:05:42.255Z,100742.27
2019-03-22T16:08:09.098Z,100738.66
2019-03-22T16:10:36.106Z,100736.53
2019-03-22T16:13:02.921Z,100736.09
2019-03-22T16:15:29.791Z,100726.88
2019-03-22T16:17:56.648Z,100719.88
2019-03-22T16:20:23.604Z,100723.16
2019-03-22T16:22:50.407Z,100732.14
2019-03-22T16:25:17.230Z,100732.14
2019-03-22T16:27:45.547Z,100737.46
2019-03-22T16:30:13.713Z,100746.47
2019-03-22T16:32:40.640Z,100748.27
2019-03-22T16:35:07.921Z,100746.28
2019-03-22T16:37:34.829Z,100740.16
2019-03-22T16:40:01.760Z,100749.77
2019-03-22T16:42:28.606Z,100756.94
2019-03-22T16:44:55.523Z,100761.77
2019-03-22T16:47:22.316Z,100754.77
2019-03-22T16:49:49.309Z,100746.52
2019-03-22T16:52:16.160Z,100755.59
2019-03-22T16:54:43.138Z,100763.07
2019-03-22T16:57:10.121Z,100764.71
2019-03-22T16:59:36.872Z,100757.39
2019-03-22T17:02:03.739Z,100757.53
2019-03-22T17:04:30.756Z,100766.66
2019-03-22T17:06:57.711Z,100765.05
2019-03-22T17:09:24.590Z,100765.60
2019-03-22T17:11:51.707Z,100756.45
2019-03-22T17:14:18.537Z,100765.42
2019-03-22T17:16:45.486Z,100759.59
2019-03-22T17:19:12.464Z,100748.52
2019-03-22T17:21:39.323Z,100754.81
2019-03-22T17:24:06.373Z,100749.04
2019-03-22T17:26:33.371Z,100755.16
2019-03-22T17:29:00.114Z,100762.77
2019-03-22T17:31:26.941Z,100760.45
2019-03-22T17:33:53.889Z,100755.98
2019-03-22T17:36:20.731Z,100755.31
2019-03-22T17:38:47.623Z,100758.45
2019-03-22T17:41:14.666Z,100754.50
2019-03-22T17:43:41.572Z,100748.85
2019-03-22T17:46:09.564Z,100747.70
2019-03-22T17:48:36.368Z,100757.15
2019-03-22T17:51:03.205Z,100766.27
2019-03-22T17:53:30.092Z,100762.61
2019-03-22T17:55:56.971Z,100770.22
2019-03-22T17:58:23.902Z,100755.16
2019-03-22T18:00:51.232Z,100759.80
2019-03-22T18:03:18.041Z,100760.47
2019-03-22T18:05:44.862Z,100773.88
2019-03-22T18:08:11.775Z,100774.88
2019-03-22T18:10:38.720Z,100781.84
2019-03-22T18:13:05.706Z,100784.98
2019-03-22T18:15:32.582Z,100787.48
2019-03-22T18:17:59.647Z,100785.99
2019-03-22T18:20:26.481Z,100788.14
2019-03-22T18:22:53.386Z,100780.98
2019-03-22T18:25:23.013Z,100784.34
2019-03-22T18:27:49.903Z,100790.95
2019-03-22T18:30:16.631Z,100793.27
2019-03-22T18:32:43.504Z,100791.30
2019-03-22T18:35:10.610Z,100782.66
2019-03-22T18:37:37.415Z,100785.17
2019-03-22T18:40:06.850Z,100775.36
2019-03-22T18:42:33.740Z,100775.05
2019-03-22T18:45:00.779Z,100775.02
2019-03-22T18:47:27.755Z,100777.70
2019-03-22T18:49:54.747Z,100777.34
2019-03-22T18:52:23.954Z,100777.37
2019-03-22T18:54:50.812Z,100767.74
2019-03-22T18:57:17.820Z,100769.05
2019-03-22T18:59:44.584Z,100766.43
2019-03-22T19:02:11.564Z,100765.75
2019-03-22T19:04:43.949Z,100770.41
2019-03-22T19:07:07.338Z,100767.40
2019-03-22T19:09:34.311Z,100762.07
2019-03-22T19:12:01.097Z,100753.48
2019-03-22T19:14:28.001Z,100746.34
2019-03-22T19:16:54.735Z,100749.20
2019-03-22T19:19:24.780Z,100740.73
2019-03-22T19:21:51.593Z,100748.86
2019-03-22T19:24:21.091Z,100745.85
2019-03-22T19:26:48.061Z,100722.66
2019-03-22T19:29:14.871Z,100722.66
2019-03-22T19:31:41.840Z,100734.25
2019-03-22T19:34:08.974Z,100737.20
2019-03-22T19:36:35.773Z,100743.81
2019-03-22T19:39:05.140Z,100728.28
2019-03-22T19:41:32.305Z,100739.20
2019-03-22T19:43:59.041Z,100735.90
2019-03-22T19:46:25.848Z,100738.55
2019-03-22T19:48:52.695Z,100733.93
2019-03-22T19:51:19.454Z,100730.78
2019-03-22T19:53:46.354Z,100732.11
2019-03-22T19:56:13.264Z,100727.28
2019-03-22T19:58:40.177Z,100726.28
2019-03-22T20:01:07.062Z,100730.43
2019-03-22T20:03:34.021Z,100725.63
2019-03-22T20:06:00.947Z,100735.19
2019-03-22T20:08:28.181Z,100727.60
2019-03-22T20:10:55.092Z,100724.92
2019-03-22T20:13:22.296Z,100737.02
2019-03-22T20:15:49.094Z,100729.21
2019-03-22T20:18:16.082Z,100734.83
2019-03-22T20:20:43.194Z,100729.70
2019-03-22T20:23:10.120Z,100730.20
2019-03-22T20:25:39.143Z,100719.08
2019-03-22T20:28:06.079Z,100726.55
2019-03-22T20:30:32.949Z,100726.23
2019-03-22T20:33:02.750Z,100726.19
2019-03-22T20:35:29.748Z,100714.95
2019-03-22T20:37:56.645Z,100708.83
2019-03-22T20:40:23.457Z,100713.08
2019-03-22T20:42:50.333Z,100719.94
2019-03-22T20:45:24.069Z,100733.18
2019-03-22T20:47:46.000Z,100732.81
2019-03-22T20:50:12.917Z,100736.14
2019-03-22T20:52:39.719Z,100726.88
2019-03-22T20:55:07.338Z,100736.83
2019-03-22T20:57:34.389Z,100735.50
2019-03-22T21:00:02.086Z,100737.33
2019-03-22T21:02:28.928Z,100730.52
2019-03-22T21:04:56.269Z,100728.02
2019-03-22T21:07:23.081Z,100727.38
2019-03-22T21:09:50.014Z,100724.19
2019-03-22T21:12:17.089Z,100733.31
2019-03-22T21:14:43.909Z,100738.10
2019-03-22T21:17:10.791Z,100730.15
2019-03-22T21:19:37.604Z,100731.78
2019-03-22T21:22:04.591Z,100728.66
2019-03-22T21:24:31.347Z,100726.81
2019-03-22T21:26:58.221Z,100726.00
2019-03-22T21:29:25.029Z,100715.44
2019-03-22T21:31:51.959Z,100722.30
2019-03-22T21:34:19.241Z,100719.08
2019-03-22T21:36:46.100Z,100721.55
2019-03-22T21:39:12.892Z,100717.06
2019-03-22T21:41:39.935Z,100717.25
2019-03-22T21:44:06.741Z,100721.41
2019-03-22T21:46:33.512Z,100718.39
2019-03-22T21:49:00.337Z,100718.08
2019-03-22T21:51:27.102Z,100718.11
2019-03-22T21:53:53.850Z,100710.80
2019-03-22T21:56:20.614Z,100702.22
2019-03-22T21:58:47.580Z,100707.34
2019-03-22T22:01:14.469Z,100700.94
2019-03-22T22:03:41.278Z,100693.34
2019-03-22T22:06:08.112Z,100695.30
2019-03-22T22:08:34.990Z,100692.53
2019-03-22T22:11:01.702Z,100695.52
2019-03-22T22:13:28.425Z,100695.52
2019-03-22T22:15:55.171Z,100700.59
2019-03-22T22:18:22.051Z,100697.36
2019-03-22T22:20:48.855Z,100701.95
2019-03-22T22:23:15.734Z,100697.56
2019-03-22T22:25:42.479Z,100689.48
2019-03-22T22:28:09.225Z,100696.73
2019-03-22T22:30:37.443Z,100682.17
2019-03-22T22:33:04.355Z,100681.80
2019-03-22T22:35:31.113Z,100679.88
2019-03-22T22:37:57.825Z,100678.47
2019-03-22T22:40:24.677Z,100683.75
2019-03-22T22:42:51.511Z,100679.09
2019-03-22T22:45:18.328Z,100676.23
2019-03-22T22:47:45.094Z,100685.38
2019-03-22T22:50:11.931Z,100677.76
2019-03-22T22:52:38.823Z,100684.16
2019-03-22T22:55:05.910Z,100683.31
2019-03-22T22:57:32.764Z,100677.25
2019-03-22T22:59:59.757Z,100674.14
2019-03-22T23:02:26.571Z,100670.97
2019-03-22T23:04:53.287Z,100672.83
2019-03-22T23:07:20.288Z,100680.33
2019-03-22T23:09:47.137Z,100671.98
2019-03-22T23:12:14.020Z,100674.35
2019-03-22T23:14:40.880Z,100674.55
2019-03-22T23:17:07.724Z,100674.58
2019-03-22T23:19:34.602Z,100680.67
2019-03-22T23:22:02.746Z,100684.56
2019-03-22T23:24:29.574Z,100680.66
2019-03-22T23:26:56.728Z,100674.70
2019-03-22T23:29:23.614Z,100680.13
2019-03-22T23:31:50.461Z,100679.00
2019-03-22T23:34:17.393Z,100666.55
2019-03-22T23:36:44.292Z,100666.12
2019-03-22T23:39:11.123Z,100659.07
2019-03-22T23:41:37.978Z,100667.84
2019-03-22T23:44:04.909Z,100669.32
2019-03-22T23:46:31.809Z,100659.88
2019-03-22T23:48:58.666Z,100661.84
2019-03-22T23:51:25.573Z,100662.66
2019-03-22T23:53:52.369Z,100660.19
2019-03-22T23:56:19.294Z,100667.13
2019-03-22T23:58:46.077Z,100656.05
